< < Back
Terminal Aerodrome Forecast


Current Version              Previous Versions:   1  2  3  4  5  6  7  8  9  

Terminal Aerodrome Forecast

736
FTUS42 KFFC 241311 AAA
TAFAHN
TAF AMD
KAHN 241311Z 2413/2512 19006KT 1/2SM FG VV002
     FM241330 19006KT 4SM BR FEW010
     FM241400 23010G18KT P6SM BKN023
     FM241600 24012G20KT P6SM SCT035
     FM242300 27009KT P6SM SCT080=



Latest METAR

073
SAUS70 KWBC 241600
MTRAHN
METAR KAHN 241551Z 21006KT 10SM SCT013 19/17 A2983 RMK AO2 SLP096
T01940167


USA.gov is the U.S. government's official web portal to all federal, state and local government web resources and services.